Terminal Aerodrome Forecast
Issued by NWS Cleveland, OH

Home | Current Version | Previous Version | Text Only | Print | Product List | Glossary On
Versions: 1 2 3 4 5 6 7 8 9 10 11 12 13 14 15 16 17 18 19 20 21 22 23
000
FTUS41 KCLE 230900 AAA
TAFCAK
TAF AMD
KCAK 230957Z 2310/2406 03003KT 4SM BR SCT050
     FM231100 00000KT 3/4SM BR SCT003
     FM231330 VRB03KT 2SM BR BKN008
     FM231500 04006KT P6SM BKN020
     FM231800 04006KT P6SM BKN035
     FM240100 06004KT P6SM SCT040
     FM240500 07004KT 5SM BR SCT040=

USA.gov is the U.S. government's official web portal to all federal, state and local government web resources and services.